createdAt,value
2018-12-14T00:00:44.354Z,16.93
2018-12-14T00:03:15.306Z,15.57
2018-12-14T00:05:46.229Z,16.30
2018-12-14T00:08:14.929Z,15.37
2018-12-14T00:10:43.593Z,16.07
2018-12-14T00:13:13.309Z,15.37
2018-12-14T00:15:42.215Z,15.90
2018-12-14T00:18:11.274Z,16.77
2018-12-14T00:20:40.077Z,15.63
2018-12-14T00:23:09.185Z,14.23
2018-12-14T00:25:37.874Z,17.40
2018-12-14T00:28:06.681Z,16.10
2018-12-14T00:30:35.981Z,15.17
2018-12-14T00:33:04.736Z,16.13
2018-12-14T00:35:33.746Z,15.73
2018-12-14T00:38:02.510Z,14.60
2018-12-14T00:40:31.313Z,16.07
2018-12-14T00:43:00.072Z,14.03
2018-12-14T00:45:28.756Z,16.43
2018-12-14T00:47:57.469Z,16.00
2018-12-14T00:50:26.305Z,16.10
2018-12-14T00:52:54.975Z,14.33
2018-12-14T00:55:24.034Z,14.47
2018-12-14T00:57:52.649Z,13.40
2018-12-14T01:00:21.723Z,15.27
2018-12-14T01:02:50.559Z,13.57
2018-12-14T01:05:20.602Z,14.07
2018-12-14T01:07:50.262Z,14.30
2018-12-14T01:10:18.945Z,14.63
2018-12-14T01:12:47.706Z,15.13
2018-12-14T01:15:16.547Z,15.20
2018-12-14T01:17:46.008Z,14.53
2018-12-14T01:20:16.049Z,15.20
2018-12-14T01:22:45.194Z,15.17
2018-12-14T01:25:13.810Z,15.10
2018-12-14T01:27:42.513Z,15.40
2018-12-14T01:30:11.257Z,15.23
2018-12-14T01:32:39.976Z,14.23
2018-12-14T01:35:08.794Z,15.63
2018-12-14T01:37:37.478Z,14.07
2018-12-14T01:40:07.580Z,15.17
2018-12-14T01:42:36.485Z,13.60
2018-12-14T01:45:05.762Z,14.90
2018-12-14T01:47:35.134Z,14.97
2018-12-14T01:50:04.810Z,15.43
2018-12-14T01:52:33.950Z,15.80
2018-12-14T01:55:03.029Z,15.28
2018-12-14T01:57:31.993Z,15.57
2018-12-14T02:00:01.688Z,15.47
2018-12-14T02:02:34.362Z,16.73
2018-12-14T02:05:04.629Z,16.07
2018-12-14T02:07:35.347Z,16.13
2018-12-14T02:10:05.971Z,15.63
2018-12-14T02:12:35.094Z,16.42
2018-12-14T02:15:04.494Z,16.80
2018-12-14T02:17:35.299Z,15.13
2018-12-14T02:20:04.500Z,14.60
2018-12-14T02:22:33.377Z,15.33
2018-12-14T02:25:02.466Z,13.93
2018-12-14T02:27:31.321Z,14.27
2018-12-14T02:30:39.480Z,15.60
2018-12-14T02:33:08.931Z,14.63
2018-12-14T02:35:38.024Z,14.80
2018-12-14T02:38:06.885Z,14.50
2018-12-14T02:40:36.263Z,13.73
2018-12-14T02:43:05.135Z,14.53
2018-12-14T02:45:34.029Z,15.30
2018-12-14T02:48:02.737Z,14.63
2018-12-14T02:50:31.702Z,14.17
2018-12-14T02:53:00.485Z,13.87
2018-12-14T02:55:29.229Z,15.80
2018-12-14T02:57:57.995Z,15.60
2018-12-14T03:00:26.741Z,14.90
2018-12-14T03:02:55.740Z,15.33
2018-12-14T03:05:24.619Z,15.33
2018-12-14T03:07:53.534Z,14.80
2018-12-14T03:10:22.615Z,14.97
2018-12-14T03:12:51.614Z,14.83
2018-12-14T03:15:22.519Z,15.03
2018-12-14T03:17:53.883Z,14.13
2018-12-14T03:20:22.917Z,15.70
2018-12-14T03:22:51.802Z,14.93
2018-12-14T03:25:21.892Z,15.90
2018-12-14T03:27:51.374Z,14.97
2018-12-14T03:30:21.658Z,15.83
2018-12-14T03:32:51.326Z,15.95
2018-12-14T03:35:28.074Z,15.83
2018-12-14T03:38:00.022Z,16.37
2018-12-14T03:40:29.774Z,14.80
2018-12-14T03:42:59.380Z,15.87
2018-12-14T03:45:28.277Z,16.03
2018-12-14T03:47:57.229Z,17.40
2018-12-14T03:50:26.001Z,14.60
2018-12-14T03:52:54.673Z,15.93
2018-12-14T03:55:23.379Z,16.27
2018-12-14T03:57:52.993Z,15.63
2018-12-14T04:00:22.286Z,16.60
2018-12-14T04:02:51.324Z,16.13
2018-12-14T04:05:21.582Z,13.90
2018-12-14T04:07:51.178Z,15.30
2018-12-14T04:10:19.853Z,14.60
2018-12-14T04:12:48.549Z,15.17
2018-12-14T04:15:17.429Z,15.80
2018-12-14T04:17:46.147Z,14.50
2018-12-14T04:20:15.974Z,14.37
2018-12-14T04:22:44.982Z,16.43
2018-12-14T04:25:13.838Z,15.37
2018-12-14T04:27:42.696Z,15.33
2018-12-14T04:30:11.765Z,15.07
2018-12-14T04:32:40.503Z,15.37
2018-12-14T04:35:09.294Z,14.80
2018-12-14T04:37:39.097Z,15.70
2018-12-14T04:40:08.118Z,14.80
2018-12-14T04:42:37.233Z,15.27
2018-12-14T04:45:06.429Z,15.80
2018-12-14T04:47:35.164Z,14.90
2018-12-14T04:50:04.109Z,14.83
2018-12-14T04:52:33.178Z,14.33
2018-12-14T04:55:01.919Z,15.40
2018-12-14T04:57:30.625Z,14.40
2018-12-14T04:59:59.679Z,14.40
2018-12-14T05:02:28.460Z,15.00
2018-12-14T05:04:57.045Z,14.33
2018-12-14T05:07:25.717Z,14.10
2018-12-14T05:09:54.638Z,14.43
2018-12-14T05:12:23.485Z,14.37
2018-12-14T05:14:52.418Z,14.57
2018-12-14T05:17:21.387Z,14.40
2018-12-14T05:19:51.198Z,13.87
2018-12-14T05:22:20.043Z,13.67
2018-12-14T05:24:48.761Z,14.90
2018-12-14T05:27:17.682Z,13.77
2018-12-14T05:29:46.642Z,13.37
2018-12-14T05:32:15.425Z,14.30
2018-12-14T05:34:44.148Z,14.37
2018-12-14T05:37:12.955Z,14.70
2018-12-14T05:39:41.975Z,14.50
2018-12-14T05:42:10.759Z,13.87
2018-12-14T05:44:39.677Z,14.20
2018-12-14T05:47:08.682Z,13.20
2018-12-14T05:49:37.370Z,14.63
2018-12-14T05:52:08.060Z,13.23
2018-12-14T05:54:36.750Z,14.90
2018-12-14T05:57:05.543Z,14.07
2018-12-14T05:59:34.201Z,13.13
2018-12-14T06:02:03.036Z,13.40
2018-12-14T06:04:31.825Z,13.80
2018-12-14T06:07:00.543Z,13.27
2018-12-14T06:09:29.277Z,14.13
2018-12-14T06:11:58.168Z,13.47
2018-12-14T06:14:27.038Z,14.77
2018-12-14T06:16:55.977Z,11.97
2018-12-14T06:19:24.634Z,13.93
2018-12-14T06:21:53.527Z,12.97
2018-12-14T06:24:22.437Z,13.57
2018-12-14T06:26:51.157Z,13.70
2018-12-14T06:29:19.869Z,13.73
2018-12-14T06:31:48.702Z,13.87
2018-12-14T06:34:17.386Z,13.70
2018-12-14T06:36:46.303Z,13.90
2018-12-14T06:39:15.214Z,12.97
2018-12-14T06:41:44.177Z,14.30
2018-12-14T06:44:12.840Z,14.60
2018-12-14T06:46:41.550Z,13.27
2018-12-14T06:49:10.188Z,14.53
2018-12-14T06:51:38.989Z,18.53
2018-12-14T06:54:08.098Z,12.80
2018-12-14T06:56:37.009Z,13.17
2018-12-14T06:59:06.006Z,13.67
2018-12-14T07:01:35.115Z,13.80
2018-12-14T07:04:03.902Z,12.97
2018-12-14T07:06:32.694Z,14.03
2018-12-14T07:09:01.785Z,13.37
2018-12-14T07:11:32.269Z,13.73
2018-12-14T07:14:01.269Z,12.97
2018-12-14T07:16:30.048Z,12.90
2018-12-14T07:18:58.943Z,12.43
2018-12-14T07:21:27.986Z,13.60
2018-12-14T07:23:56.884Z,13.63
2018-12-14T07:26:26.345Z,14.13
2018-12-14T07:28:55.261Z,13.40
2018-12-14T07:31:24.142Z,15.07
2018-12-14T07:33:52.945Z,12.93
2018-12-14T07:36:21.651Z,12.93
2018-12-14T07:38:51.806Z,14.07
2018-12-14T07:41:21.547Z,13.27
2018-12-14T07:43:51.339Z,13.30
2018-12-14T07:46:20.553Z,12.93
2018-12-14T07:48:49.340Z,13.87
2018-12-14T07:51:18.172Z,13.60
2018-12-14T07:53:46.972Z,14.20
2018-12-14T07:56:15.899Z,13.23
2018-12-14T07:58:44.693Z,13.80
2018-12-14T08:01:13.944Z,14.70
2018-12-14T08:03:42.947Z,13.23
2018-12-14T08:06:11.626Z,13.00
2018-12-14T08:08:40.719Z,14.33
2018-12-14T08:11:09.451Z,13.87
2018-12-14T08:13:38.236Z,14.10
2018-12-14T08:16:07.087Z,13.37
2018-12-14T08:18:35.930Z,14.17
2018-12-14T08:21:04.801Z,13.00
2018-12-14T08:23:33.594Z,14.10
2018-12-14T08:26:02.382Z,13.90
2018-12-14T08:28:31.206Z,13.13
2018-12-14T08:31:00.533Z,13.27
2018-12-14T08:33:29.263Z,13.67
2018-12-14T08:35:58.017Z,12.53
2018-12-14T08:38:27.691Z,13.17
2018-12-14T08:40:56.707Z,12.27
2018-12-14T08:43:25.441Z,13.17
2018-12-14T08:45:54.357Z,12.77
2018-12-14T08:48:23.440Z,13.37
2018-12-14T08:50:52.374Z,13.07
2018-12-14T08:53:21.823Z,12.20
2018-12-14T08:55:51.693Z,13.83
2018-12-14T08:58:20.749Z,12.17
2018-12-14T09:00:49.599Z,12.40
2018-12-14T09:03:18.373Z,12.43
2018-12-14T09:05:47.134Z,11.87
2018-12-14T09:08:16.877Z,11.70
2018-12-14T09:10:45.741Z,11.67
2018-12-14T09:13:14.457Z,12.53
2018-12-14T09:15:43.313Z,13.00
2018-12-14T09:18:12.140Z,11.47
2018-12-14T09:20:40.970Z,12.00
2018-12-14T09:23:09.650Z,11.17
2018-12-14T09:25:38.765Z,11.40
2018-12-14T09:28:07.733Z,12.57
2018-12-14T09:30:42.468Z,11.13
2018-12-14T09:33:07.311Z,10.93
2018-12-14T09:35:36.090Z,12.33
2018-12-14T09:38:04.867Z,11.93
2018-12-14T09:40:33.884Z,10.33
2018-12-14T09:43:02.616Z,11.23
2018-12-14T09:45:31.410Z,10.93
2018-12-14T09:48:00.160Z,10.27
2018-12-14T09:50:29.216Z,10.77
2018-12-14T09:52:58.073Z,11.60
2018-12-14T09:55:27.349Z,11.50
2018-12-14T09:57:56.368Z,10.57
2018-12-14T10:00:25.729Z,11.67
2018-12-14T10:02:54.719Z,11.40
2018-12-14T10:05:23.552Z,10.60
2018-12-14T10:07:53.271Z,10.70
2018-12-14T10:10:22.014Z,10.67
2018-12-14T10:12:51.693Z,10.27
2018-12-14T10:15:20.463Z,11.17
2018-12-14T10:17:49.593Z,10.93
2018-12-14T10:20:18.624Z,11.40
2018-12-14T10:22:47.578Z,10.27
2018-12-14T10:25:16.943Z,10.23
2018-12-14T10:27:45.862Z,12.43
2018-12-14T10:30:14.614Z,10.47
2018-12-14T10:32:43.546Z,11.43
2018-12-14T10:35:12.311Z,11.37
2018-12-14T10:37:41.237Z,10.90
2018-12-14T10:40:10.728Z,11.50
2018-12-14T10:42:39.410Z,10.67
2018-12-14T10:45:09.398Z,11.27
2018-12-14T10:48:04.367Z,10.93
2018-12-14T10:50:39.329Z,11.13
2018-12-14T10:53:08.476Z,10.57
2018-12-14T10:55:38.302Z,11.60
2018-12-14T10:58:07.272Z,10.50
2018-12-14T11:00:41.734Z,11.63
2018-12-14T11:03:10.986Z,10.93
2018-12-14T11:05:39.749Z,10.97
2018-12-14T11:08:09.277Z,11.68
2018-12-14T11:10:38.228Z,11.53
2018-12-14T11:13:07.027Z,10.30
2018-12-14T11:15:35.931Z,11.97
2018-12-14T11:18:04.699Z,11.23
2018-12-14T11:20:33.550Z,10.93
2018-12-14T11:23:02.838Z,11.60
2018-12-14T11:25:31.694Z,11.53
2018-12-14T11:28:01.045Z,10.27
2018-12-14T11:30:29.902Z,10.83
2018-12-14T11:32:58.632Z,11.87
2018-12-14T11:35:27.368Z,11.00
2018-12-14T11:37:56.066Z,11.23
2018-12-14T11:40:24.968Z,11.03
2018-12-14T11:42:53.749Z,10.17
2018-12-14T11:45:22.637Z,10.87
2018-12-14T11:47:51.989Z,12.00
2018-12-14T11:50:20.880Z,11.40
2018-12-14T11:52:49.521Z,11.03
2018-12-14T11:55:18.275Z,10.27
2018-12-14T11:57:47.065Z,11.40
2018-12-14T12:00:15.921Z,11.93
2018-12-14T12:02:44.654Z,11.73
2018-12-14T12:05:13.370Z,11.17
2018-12-14T12:07:43.094Z,11.17
2018-12-14T12:10:11.837Z,11.43
2018-12-14T12:12:40.549Z,11.63
2018-12-14T12:15:09.714Z,10.80
2018-12-14T12:17:39.501Z,10.80
2018-12-14T12:20:08.944Z,11.03
2018-12-14T12:22:38.742Z,10.23
2018-12-14T12:25:07.498Z,11.90
2018-12-14T12:27:36.216Z,11.27
2018-12-14T12:30:05.375Z,10.33
2018-12-14T12:32:34.160Z,11.97
2018-12-14T12:35:02.935Z,11.80
2018-12-14T12:37:31.629Z,11.65
2018-12-14T12:40:01.976Z,12.10
2018-12-14T12:42:31.098Z,11.97
2018-12-14T12:44:59.736Z,11.83
2018-12-14T12:47:28.409Z,11.47
2018-12-14T12:49:57.193Z,11.43
2018-12-14T12:52:26.030Z,11.53
2018-12-14T12:54:54.785Z,11.27
2018-12-14T12:57:23.552Z,11.73
2018-12-14T12:59:52.260Z,11.20
2018-12-14T13:02:20.993Z,11.90
2018-12-14T13:04:50.045Z,11.30
2018-12-14T13:07:18.748Z,13.23
2018-12-14T13:09:47.455Z,11.73
2018-12-14T13:12:16.395Z,10.30
2018-12-14T13:14:45.361Z,11.90
2018-12-14T13:17:14.015Z,11.30
2018-12-14T13:19:42.729Z,11.60
2018-12-14T13:22:11.455Z,11.07
2018-12-14T13:24:40.478Z,11.20
2018-12-14T13:27:09.314Z,10.80
2018-12-14T13:29:37.994Z,10.70
2018-12-14T13:32:07.372Z,10.20
2018-12-14T13:34:36.065Z,10.30
2018-12-14T13:37:04.808Z,9.87
2018-12-14T13:39:33.573Z,9.83
2018-12-14T13:42:02.282Z,9.50
2018-12-14T13:44:31.646Z,9.57
2018-12-14T13:47:00.443Z,10.30
2018-12-14T13:49:29.209Z,11.07
2018-12-14T13:51:58.032Z,10.60
2018-12-14T13:54:27.083Z,9.97
2018-12-14T13:56:55.753Z,9.83
2018-12-14T13:59:24.777Z,10.20
2018-12-14T14:01:53.648Z,9.20
2018-12-14T14:04:22.330Z,8.67
2018-12-14T14:06:51.090Z,8.63
2018-12-14T14:09:20.043Z,8.67
2018-12-14T14:11:48.765Z,8.37
2018-12-14T14:14:17.544Z,8.70
2018-12-14T14:16:48.012Z,9.05
2018-12-14T14:19:16.627Z,9.17
2018-12-14T14:21:45.598Z,8.60
2018-12-14T14:24:14.586Z,8.97
2018-12-14T14:26:44.629Z,9.07
2018-12-14T14:29:13.360Z,9.37
2018-12-14T14:31:42.071Z,9.53
2018-12-14T14:34:10.853Z,9.63
2018-12-14T14:36:39.624Z,8.23
2018-12-14T14:39:08.437Z,9.20
2018-12-14T14:41:37.114Z,8.53
2018-12-14T14:44:05.889Z,8.63
2018-12-14T14:46:35.241Z,8.47
2018-12-14T14:49:04.202Z,8.50
2018-12-14T14:51:33.416Z,8.70
2018-12-14T14:54:02.187Z,8.87
2018-12-14T14:56:30.944Z,8.07
2018-12-14T14:59:00.336Z,8.73
2018-12-14T15:01:29.273Z,8.73
2018-12-14T15:03:58.426Z,7.90
2018-12-14T15:06:27.365Z,8.90
2018-12-14T15:08:56.542Z,8.97
2018-12-14T15:11:25.462Z,8.50
2018-12-14T15:13:54.254Z,8.40
2018-12-14T15:16:23.036Z,8.70
2018-12-14T15:18:52.458Z,8.30
2018-12-14T15:21:21.186Z,8.90
2018-12-14T15:23:49.865Z,8.77
2018-12-14T15:26:18.653Z,8.53
2018-12-14T15:28:47.287Z,8.77
2018-12-14T15:31:16.026Z,8.93
2018-12-14T15:33:45.057Z,9.20
2018-12-14T15:36:13.855Z,8.90
2018-12-14T15:38:42.885Z,9.20
2018-12-14T15:41:11.714Z,9.37
2018-12-14T15:43:40.725Z,8.67
2018-12-14T15:46:09.570Z,9.73
2018-12-14T15:48:38.325Z,8.13
2018-12-14T15:51:07.029Z,9.67
2018-12-14T15:53:35.875Z,8.13
2018-12-14T15:56:04.568Z,8.57
2018-12-14T15:58:33.422Z,8.70
2018-12-14T16:01:02.429Z,8.80
2018-12-14T16:03:32.181Z,9.48
2018-12-14T16:06:00.972Z,9.07
2018-12-14T16:08:30.246Z,9.60
2018-12-14T16:10:59.268Z,9.77
2018-12-14T16:13:27.937Z,10.00
2018-12-14T16:15:57.397Z,9.20
2018-12-14T16:18:26.272Z,8.87
2018-12-14T16:20:55.041Z,9.27
2018-12-14T16:23:25.330Z,9.00
2018-12-14T16:25:55.429Z,9.87
2018-12-14T16:28:24.331Z,8.87
2018-12-14T16:30:53.142Z,9.40
2018-12-14T16:33:22.958Z,9.13
2018-12-14T16:35:52.641Z,10.03
2018-12-14T16:38:21.469Z,9.73
2018-12-14T16:40:50.221Z,9.50
2018-12-14T16:43:18.919Z,9.37
2018-12-14T16:45:47.885Z,10.48
2018-12-14T16:48:16.693Z,9.23
2018-12-14T16:50:45.515Z,9.57
2018-12-14T16:53:14.261Z,9.77
2018-12-14T16:55:44.024Z,8.97
2018-12-14T16:58:13.036Z,10.23
2018-12-14T17:00:41.794Z,8.97
2018-12-14T17:03:11.628Z,9.57
2018-12-14T17:05:42.353Z,10.80
2018-12-14T17:08:11.202Z,10.40
2018-12-14T17:10:39.969Z,10.50
2018-12-14T17:13:08.730Z,10.43
2018-12-14T17:15:37.973Z,10.80
2018-12-14T17:18:06.728Z,14.80
2018-12-14T17:20:35.746Z,10.43
2018-12-14T17:23:05.098Z,10.77
2018-12-14T17:25:34.105Z,10.60
2018-12-14T17:28:03.218Z,11.83
2018-12-14T17:30:31.897Z,12.30
2018-12-14T17:33:00.711Z,10.90
2018-12-14T17:35:29.401Z,11.73
2018-12-14T17:37:58.381Z,11.23
2018-12-14T17:40:27.652Z,12.57
2018-12-14T17:42:57.257Z,15.03
2018-12-14T17:45:26.214Z,12.03
2018-12-14T17:47:55.051Z,12.90
2018-12-14T17:50:23.827Z,12.83
2018-12-14T17:52:53.007Z,11.70
2018-12-14T17:55:21.869Z,12.23
2018-12-14T17:57:51.067Z,12.23
2018-12-14T18:00:20.168Z,12.67
2018-12-14T18:02:49.223Z,12.00
2018-12-14T18:05:18.216Z,13.50
2018-12-14T18:07:47.106Z,11.93
2018-12-14T18:10:16.209Z,12.63
2018-12-14T18:12:44.987Z,12.77
2018-12-14T18:15:14.107Z,12.60
2018-12-14T18:17:43.032Z,13.20
2018-12-14T18:20:12.052Z,12.50
2018-12-14T18:22:41.357Z,12.80
2018-12-14T18:25:10.513Z,13.97
2018-12-14T18:27:39.237Z,12.97
2018-12-14T18:30:08.933Z,13.33
2018-12-14T18:32:37.597Z,14.17
2018-12-14T18:35:07.505Z,14.53
2018-12-14T18:37:36.602Z,13.37
2018-12-14T18:40:07.231Z,12.93
2018-12-14T18:42:36.373Z,12.97
2018-12-14T18:45:06.148Z,13.67
2018-12-14T18:47:35.114Z,13.63
2018-12-14T18:50:04.079Z,13.93
2018-12-14T18:52:33.469Z,13.20
2018-12-14T18:55:02.415Z,12.90
2018-12-14T18:57:31.160Z,13.00
2018-12-14T19:00:00.378Z,13.97
2018-12-14T19:02:29.164Z,14.83
2018-12-14T19:04:57.865Z,15.17
2018-12-14T19:07:26.934Z,14.40
2018-12-14T19:09:55.740Z,14.87
2018-12-14T19:12:24.709Z,13.90
2018-12-14T19:14:53.844Z,14.90
2018-12-14T19:17:23.352Z,14.57
2018-12-14T19:19:53.023Z,14.63
2018-12-14T19:22:21.785Z,15.03
2018-12-14T19:24:50.589Z,13.83
2018-12-14T19:27:19.302Z,14.23
2018-12-14T19:29:48.034Z,15.67
2018-12-14T19:32:16.813Z,15.33
2018-12-14T19:34:46.434Z,15.03
2018-12-14T19:37:15.611Z,15.50
2018-12-14T19:39:44.338Z,14.37
2018-12-14T19:42:13.146Z,13.20
2018-12-14T19:44:42.184Z,15.57
2018-12-14T19:47:11.245Z,15.33
2018-12-14T19:49:40.123Z,15.30
2018-12-14T19:52:08.830Z,15.50
2018-12-14T19:54:37.840Z,14.33
2018-12-14T19:57:06.725Z,14.93
2018-12-14T19:59:35.505Z,15.30
2018-12-14T20:02:04.495Z,16.27
2018-12-14T20:04:33.522Z,16.60
2018-12-14T20:07:02.487Z,16.70
2018-12-14T20:09:31.553Z,16.93
2018-12-14T20:12:00.422Z,18.10
2018-12-14T20:14:29.217Z,14.93
2018-12-14T20:16:58.082Z,15.93
2018-12-14T20:19:26.873Z,15.23
2018-12-14T20:21:56.741Z,15.83
2018-12-14T20:24:25.533Z,15.97
2018-12-14T20:26:54.226Z,15.83
2018-12-14T20:29:23.401Z,16.00
2018-12-14T20:31:52.086Z,16.67
2018-12-14T20:34:20.809Z,16.33
2018-12-14T20:36:49.617Z,17.60
2018-12-14T20:39:18.313Z,16.17
2018-12-14T20:41:47.143Z,17.97
2018-12-14T20:44:16.785Z,16.60
2018-12-14T20:46:45.465Z,17.67
2018-12-14T20:49:14.174Z,16.63
2018-12-14T20:51:42.872Z,16.93
2018-12-14T20:54:11.646Z,17.87
2018-12-14T20:56:40.495Z,17.50
2018-12-14T20:59:09.214Z,17.33
2018-12-14T21:01:38.009Z,17.40
2018-12-14T21:04:06.670Z,17.57
2018-12-14T21:06:35.742Z,18.20
2018-12-14T21:09:06.383Z,19.50
2018-12-14T21:11:36.517Z,18.40
2018-12-14T21:14:05.381Z,18.40
2018-12-14T21:16:34.095Z,18.00
2018-12-14T21:19:02.801Z,18.30
2018-12-14T21:21:31.512Z,18.63
2018-12-14T21:24:00.272Z,18.43
2018-12-14T21:26:29.082Z,18.10
2018-12-14T21:28:57.765Z,19.40
2018-12-14T21:31:26.620Z,17.73
2018-12-14T21:33:55.533Z,18.10
2018-12-14T21:36:24.293Z,17.80
2018-12-14T21:38:53.576Z,18.83
2018-12-14T21:41:22.647Z,19.10
2018-12-14T21:43:51.369Z,17.43
2018-12-14T21:46:20.133Z,19.20
2018-12-14T21:48:49.178Z,19.10
2018-12-14T21:51:17.899Z,19.43
2018-12-14T21:53:46.754Z,33.80
2018-12-14T21:56:15.467Z,19.33
2018-12-14T21:58:44.685Z,18.80
2018-12-14T22:01:13.573Z,18.27
2018-12-14T22:03:42.753Z,19.33
2018-12-14T22:06:11.547Z,19.97
2018-12-14T22:08:40.125Z,19.07
2018-12-14T22:11:08.874Z,20.13
2018-12-14T22:13:38.040Z,19.53
2018-12-14T22:16:06.825Z,19.87
2018-12-14T22:18:35.474Z,20.47
2018-12-14T22:21:04.242Z,20.07
2018-12-14T22:23:33.864Z,19.63
2018-12-14T22:26:02.797Z,18.87
2018-12-14T22:28:31.526Z,18.37
2018-12-14T22:31:00.293Z,20.32
2018-12-14T22:33:29.099Z,21.03
2018-12-14T22:35:58.054Z,20.63
2018-12-14T22:38:26.819Z,21.57
2018-12-14T22:40:55.619Z,20.33
2018-12-14T22:43:24.288Z,20.63
2018-12-14T22:45:53.694Z,21.23
2018-12-14T22:48:23.964Z,21.33
2018-12-14T22:50:53.583Z,20.40
2018-12-14T22:53:22.345Z,21.27
2018-12-14T22:55:51.185Z,21.00
2018-12-14T22:58:19.901Z,22.83
2018-12-14T23:00:53.285Z,22.17
2018-12-14T23:03:22.021Z,22.13
2018-12-14T23:05:50.880Z,20.67
2018-12-14T23:08:19.686Z,21.07
2018-12-14T23:10:48.467Z,21.87
2018-12-14T23:13:17.277Z,22.03
2018-12-14T23:15:46.047Z,20.87
2018-12-14T23:18:14.813Z,21.77
2018-12-14T23:20:43.537Z,22.70
2018-12-14T23:23:12.283Z,20.23
2018-12-14T23:25:41.006Z,19.83
2018-12-14T23:28:09.730Z,22.67
2018-12-14T23:30:38.434Z,22.03
2018-12-14T23:33:07.277Z,20.57
2018-12-14T23:35:36.439Z,20.97
2018-12-14T23:38:05.131Z,20.27
2018-12-14T23:40:33.910Z,20.67
2018-12-14T23:43:02.706Z,19.87
2018-12-14T23:45:31.478Z,20.30
2018-12-14T23:48:00.241Z,20.00
2018-12-14T23:50:29.315Z,20.40
2018-12-14T23:52:58.033Z,20.73
2018-12-14T23:55:26.924Z,20.37
2018-12-14T23:57:55.729Z,19.93
